Janet — 9HSL8 — position and weather

sailwx.info

Track history (hours):
 
Tides and Currents Weather Stations Pressure Air Temp Water Temp Dewpoint Dewpoint Depression Visibility Wind Speed Wind Dir Waves Ship Positions

Janet

Last reported at 2015-Jul-06 19:33 UTC. Time now 2015-Jul-06 19:56 UTC.
Position N 54°22' E 009°52'.

Length 90 m; draft 3.8 m.

Type: Cargo ship. MMSI: 256371000.

Date/timePositionNaut miles runAvg speedWind from/ knotsBaromVisibWave heightAir tempDewpointWater temp
2015-Jul-06 19:33N 54°22' E 009°52'30 7.0
2015-Jul-06 15:11N 53°59' E 009°17'5 7.6
2015-Jul-06 14:33N 53°55' E 009°12'1 0.8
2015-Jul-06 13:33N 53°55' E 009°11'1 1.1
2015-Jul-06 12:32N 53°54' E 009°09'1 1.4
2015-Jul-06 11:33N 53°53' E 009°08'7 6.5
2015-Jul-06 10:33N 53°51' E 008°57'8 7.8
2015-Jul-06 09:33N 53°52' E 008°44'29 8.4
2015-Jul-06 06:07N 53°58' E 007°56'6 9.9
2015-Jul-06 05:31N 53°56' E 007°46'10 9.9
2015-Jul-06 04:33N 53°54' E 007°30'6510.1
2015-Jul-05 22:04N 53°37' E 005°44'611.4
2015-Jul-05 21:33N 53°35' E 005°34'1212.4
2015-Jul-05 20:33N 53°31' E 005°14'1312.7
2015-Jul-05 19:33N 53°26' E 004°54'4212.2
2015-Jul-05 16:05N 52°52' E 004°14'611.4
2015-Jul-05 15:33N 52°47' E 004°09'1010.5
2015-Jul-05 14:33N 52°40' E 003°55'8010.0
2015-Jul-05 06:33N 51°48' E 002°16'1712.1
2015-Jul-05 05:09N 51°37' E 001°56'912.5
2015-Jul-05 04:24N 51°32' E 001°43'1011.7
2015-Jul-05 03:33N 51°29' E 001°28'1310.7
2015-Jul-05 02:21N 51°29' E 001°08'8 9.7
2015-Jul-05 01:33N 51°29' E 000°55'9 8.7
2015-Jul-05 00:32N 51°30' E 000°41'8 8.1
2015-Jul-04 23:33N 51°30' E 000°28'5 5.3
2015-Jul-04 22:34N 51°27' E 000°21'0 0.2
2015-Jul-04 21:34N 51°27' E 000°21'0 0.0
2015-Jul-04 20:34N 51°27' E 000°21'0 0.0
2015-Jul-04 19:34N 51°27' E 000°21'0 0.0
2015-Jul-04 18:34N 51°27' E 000°21'0 0.0
2015-Jul-04 17:34N 51°27' E 000°21'0 0.0
2015-Jul-04 16:33N 51°27' E 000°21'0 0.0
2015-Jul-04 15:34N 51°27' E 000°21'0 0.0
2015-Jul-04 14:33N 51°27' E 000°21'0 0.0
2015-Jul-04 13:34N 51°27' E 000°21'0 0.0
2015-Jul-04 12:34N 51°27' E 000°21'0 0.0
2015-Jul-04 11:33N 51°27' E 000°21'0 0.0
2015-Jul-04 10:34N 51°27' E 000°21'0 0.0
2015-Jul-04 09:34N 51°27' E 000°21'0 0.0
2015-Jul-04 08:34N 51°27' E 000°21'0 0.0
2015-Jul-04 07:34N 51°27' E 000°21'0 0.0
2015-Jul-04 06:34N 51°27' E 000°21'0 0.0
2015-Jul-04 05:33N 51°27' E 000°21'0 0.0
2015-Jul-04 04:34N 51°27' E 000°21'0 0.0
2015-Jul-04 03:34N 51°27' E 000°21'0 0.0
2015-Jul-04 02:34N 51°27' E 000°21'0 0.0
2015-Jul-04 01:34N 51°27' E 000°21'0 0.0
2015-Jul-04 00:34N 51°27' E 000°21'0 0.0
2015-Jul-03 23:34N 51°27' E 000°21'0 0.3
2015-Jul-03 22:34N 51°27' E 000°21'2 1.8
2015-Jul-03 21:34N 51°27' E 000°23'10 9.5
2015-Jul-03 20:32N 51°30' E 000°38'11 9.5
2015-Jul-03 19:20N 51°29' E 000°56'15 8.5
2015-Jul-03 17:33N 51°29' E 001°21'8 7.8
2015-Jul-03 16:33N 51°24' E 001°31'7 7.3
2015-Jul-03 15:34N 51°19' E 001°39'1 1.3
2015-Jul-03 14:33N 51°18' E 001°39'4 4.4
2015-Jul-03 13:33N 51°13' E 001°39'  
2015-Jul-01 00:11N 54°20' W 005°20'7 9.1
2015-Jun-30 23:22N 54°27' W 005°20'7 8.9
2015-Jun-30 22:33N 54°34' W 005°24'9 8.8
2015-Jun-30 21:33N 54°42' W 005°29'9 9.3
2015-Jun-30 20:33N 54°42' W 005°45'  
Track history (hours):
 
Tides and Currents Weather Stations Pressure Air Temp Water Temp Dewpoint Dewpoint Depression Visibility Wind Speed Wind Dir Waves Ship Positions

Janet

Last reported at 2015-Jul-06 19:33 UTC. Time now 2015-Jul-06 19:56 UTC.
Position N 54°22' E 009°52'.

Length 90 m; draft 3.8 m.

Type: Cargo ship. MMSI: 256371000.

Date/timePositionNaut miles runAvg speedWind from/ knotsBaromVisibWave heightAir tempDewpointWater temp
2015-Jul-06 19:33N 54°22' E 009°52'30 7.0
2015-Jul-06 15:11N 53°59' E 009°17'5 7.6
2015-Jul-06 14:33N 53°55' E 009°12'1 0.8
2015-Jul-06 13:33N 53°55' E 009°11'1 1.1
2015-Jul-06 12:32N 53°54' E 009°09'1 1.4
2015-Jul-06 11:33N 53°53' E 009°08'7 6.5
2015-Jul-06 10:33N 53°51' E 008°57'8 7.8
2015-Jul-06 09:33N 53°52' E 008°44'29 8.4
2015-Jul-06 06:07N 53°58' E 007°56'6 9.9
2015-Jul-06 05:31N 53°56' E 007°46'10 9.9
2015-Jul-06 04:33N 53°54' E 007°30'6510.1
2015-Jul-05 22:04N 53°37' E 005°44'611.4
2015-Jul-05 21:33N 53°35' E 005°34'1212.4
2015-Jul-05 20:33N 53°31' E 005°14'1312.7
2015-Jul-05 19:33N 53°26' E 004°54'4212.2
2015-Jul-05 16:05N 52°52' E 004°14'611.4
2015-Jul-05 15:33N 52°47' E 004°09'1010.5
2015-Jul-05 14:33N 52°40' E 003°55'8010.0
2015-Jul-05 06:33N 51°48' E 002°16'1712.1
2015-Jul-05 05:09N 51°37' E 001°56'912.5
2015-Jul-05 04:24N 51°32' E 001°43'1011.7
2015-Jul-05 03:33N 51°29' E 001°28'1310.7
2015-Jul-05 02:21N 51°29' E 001°08'8 9.7
2015-Jul-05 01:33N 51°29' E 000°55'9 8.7
2015-Jul-05 00:32N 51°30' E 000°41'8 8.1
2015-Jul-04 23:33N 51°30' E 000°28'5 5.3
2015-Jul-04 22:34N 51°27' E 000°21'0 0.2
2015-Jul-04 21:34N 51°27' E 000°21'0 0.0
2015-Jul-04 20:34N 51°27' E 000°21'0 0.0
2015-Jul-04 19:34N 51°27' E 000°21'0 0.0
2015-Jul-04 18:34N 51°27' E 000°21'0 0.0
2015-Jul-04 17:34N 51°27' E 000°21'0 0.0
2015-Jul-04 16:33N 51°27' E 000°21'0 0.0
2015-Jul-04 15:34N 51°27' E 000°21'0 0.0
2015-Jul-04 14:33N 51°27' E 000°21'0 0.0
2015-Jul-04 13:34N 51°27' E 000°21'0 0.0
2015-Jul-04 12:34N 51°27' E 000°21'0 0.0
2015-Jul-04 11:33N 51°27' E 000°21'0 0.0
2015-Jul-04 10:34N 51°27' E 000°21'0 0.0
2015-Jul-04 09:34N 51°27' E 000°21'0 0.0
2015-Jul-04 08:34N 51°27' E 000°21'0 0.0
2015-Jul-04 07:34N 51°27' E 000°21'0 0.0
2015-Jul-04 06:34N 51°27' E 000°21'0 0.0
2015-Jul-04 05:33N 51°27' E 000°21'0 0.0
2015-Jul-04 04:34N 51°27' E 000°21'0 0.0
2015-Jul-04 03:34N 51°27' E 000°21'0 0.0
2015-Jul-04 02:34N 51°27' E 000°21'0 0.0
2015-Jul-04 01:34N 51°27' E 000°21'0 0.0
2015-Jul-04 00:34N 51°27' E 000°21'0 0.0
2015-Jul-03 23:34N 51°27' E 000°21'0 0.3
2015-Jul-03 22:34N 51°27' E 000°21'2 1.8
2015-Jul-03 21:34N 51°27' E 000°23'10 9.5
2015-Jul-03 20:32N 51°30' E 000°38'11 9.5
2015-Jul-03 19:20N 51°29' E 000°56'15 8.5
2015-Jul-03 17:33N 51°29' E 001°21'8 7.8
2015-Jul-03 16:33N 51°24' E 001°31'7 7.3
2015-Jul-03 15:34N 51°19' E 001°39'1 1.3
2015-Jul-03 14:33N 51°18' E 001°39'4 4.4
2015-Jul-03 13:33N 51°13' E 001°39'  
2015-Jul-01 00:11N 54°20' W 005°20'7 9.1
2015-Jun-30 23:22N 54°27' W 005°20'7 8.9
2015-Jun-30 22:33N 54°34' W 005°24'9 8.8
2015-Jun-30 21:33N 54°42' W 005°29'9 9.3
2015-Jun-30 20:33N 54°42' W 005°45'  

Dump ship's entire track history